createdAt,value
2022-09-07T00:01:36.198Z,20.68
2022-09-07T00:04:03.901Z,20.66
2022-09-07T00:06:34.499Z,20.64
2022-09-07T00:09:02.318Z,20.71
2022-09-07T00:11:30.013Z,20.75
2022-09-07T00:13:57.385Z,20.79
2022-09-07T00:16:26.918Z,20.54
2022-09-07T00:18:55.710Z,20.62
2022-09-07T00:21:23.113Z,20.71
2022-09-07T00:23:50.617Z,20.65
2022-09-07T00:26:22.718Z,20.54
2022-09-07T00:28:50.162Z,20.70
2022-09-07T00:31:20.271Z,20.54
2022-09-07T00:33:49.099Z,20.59
2022-09-07T00:36:17.211Z,20.67
2022-09-07T00:38:45.108Z,20.43
2022-09-07T00:41:12.606Z,20.46
2022-09-07T00:43:42.127Z,20.49
2022-09-07T00:46:32.753Z,20.49
2022-09-07T00:49:09.182Z,20.24
2022-09-07T00:51:41.321Z,20.28
2022-09-07T00:54:14.432Z,20.24
2022-09-07T00:56:42.298Z,20.38
2022-09-07T00:59:09.901Z,20.29
2022-09-07T01:01:37.406Z,20.29
2022-09-07T01:04:05.163Z,20.26
2022-09-07T01:06:34.274Z,20.34
2022-09-07T01:09:04.467Z,20.29
2022-09-07T01:11:33.924Z,20.19
2022-09-07T01:14:01.334Z,20.06
2022-09-07T01:16:47.625Z,20.06
2022-09-07T01:19:40.007Z,20.01
2022-09-07T01:22:13.491Z,20.08
2022-09-07T01:25:09.674Z,19.92
2022-09-07T01:28:00.962Z,19.93
2022-09-07T01:30:28.648Z,19.97
2022-09-07T01:33:34.506Z,19.70
2022-09-07T01:36:19.010Z,19.65
2022-09-07T01:38:58.880Z,19.71
2022-09-07T01:41:49.688Z,19.76
2022-09-07T01:44:20.201Z,19.78
2022-09-07T01:47:12.439Z,19.85
2022-09-07T01:49:48.605Z,19.76
2022-09-07T01:52:18.829Z,19.85
2022-09-07T01:54:55.415Z,19.89
2022-09-07T01:57:26.605Z,19.80
2022-09-07T01:59:58.990Z,19.81
2022-09-07T02:02:30.948Z,19.97
2022-09-07T02:05:10.550Z,19.95
2022-09-07T02:07:58.666Z,20.14
2022-09-07T02:10:35.120Z,19.68
2022-09-07T02:13:18.950Z,19.71
2022-09-07T02:15:52.313Z,19.86
2022-09-07T02:18:22.870Z,19.96
2022-09-07T02:20:52.434Z,19.79
2022-09-07T02:23:22.598Z,19.80
2022-09-07T02:25:56.310Z,20.04
2022-09-07T02:28:29.623Z,19.82
2022-09-07T02:30:57.371Z,19.87
2022-09-07T02:33:24.791Z,19.89
2022-09-07T02:35:52.208Z,20.14
2022-09-07T02:38:19.908Z,19.96
2022-09-07T02:40:52.282Z,19.93
2022-09-07T02:43:20.063Z,20.01
2022-09-07T02:46:10.689Z,19.88
2022-09-07T02:48:41.012Z,20.07
2022-09-07T02:51:11.113Z,19.91
2022-09-07T02:53:56.952Z,19.77
2022-09-07T02:56:36.418Z,19.89
2022-09-07T02:59:06.861Z,19.87
2022-09-07T03:02:01.617Z,19.81
2022-09-07T03:04:35.190Z,19.84
2022-09-07T03:07:11.214Z,19.80
2022-09-07T03:09:41.661Z,19.65
2022-09-07T03:12:09.109Z,19.85
2022-09-07T03:14:37.751Z,19.86
2022-09-07T03:17:05.418Z,19.89
2022-09-07T03:19:32.813Z,19.99
2022-09-07T03:22:00.267Z,19.74
2022-09-07T03:24:27.925Z,19.93
2022-09-07T03:26:55.356Z,19.97
2022-09-07T03:29:22.767Z,19.99
2022-09-07T03:31:50.465Z,19.71
2022-09-07T03:34:18.093Z,19.79
2022-09-07T03:36:45.532Z,19.90
2022-09-07T03:39:13.914Z,19.97
2022-09-07T03:41:41.326Z,19.89
2022-09-07T03:44:08.968Z,19.89
2022-09-07T03:46:36.686Z,19.93
2022-09-07T03:49:04.125Z,19.97
2022-09-07T03:51:31.550Z,19.78
2022-09-07T03:54:00.386Z,19.83
2022-09-07T03:56:27.837Z,19.63
2022-09-07T03:58:55.272Z,19.78
2022-09-07T04:01:24.377Z,19.69
2022-09-07T04:03:52.253Z,19.75
2022-09-07T04:06:19.783Z,19.46
2022-09-07T04:08:47.207Z,19.38
2022-09-07T04:11:17.249Z,19.32
2022-09-07T04:13:45.181Z,19.17
2022-09-07T04:16:14.408Z,19.21
2022-09-07T04:18:42.085Z,19.43
2022-09-07T04:21:09.610Z,19.30
2022-09-07T04:23:38.859Z,19.37
2022-09-07T04:26:06.492Z,19.62
2022-09-07T04:28:33.896Z,19.37
2022-09-07T04:31:04.326Z,19.52
2022-09-07T04:33:32.263Z,19.61
2022-09-07T04:36:00.952Z,19.60
2022-09-07T04:38:28.612Z,19.63
2022-09-07T04:41:10.094Z,19.61
2022-09-07T04:43:37.862Z,19.54
2022-09-07T04:46:06.748Z,19.68
2022-09-07T04:48:34.308Z,19.81
2022-09-07T04:51:08.925Z,19.88
2022-09-07T04:53:37.266Z,19.82
2022-09-07T04:56:04.879Z,19.66
2022-09-07T04:58:32.287Z,19.72
2022-09-07T05:01:04.001Z,19.84
2022-09-07T05:03:31.490Z,20.04
2022-09-07T05:06:02.544Z,19.97
2022-09-07T05:08:30.343Z,20.11
2022-09-07T05:10:57.841Z,19.75
2022-09-07T05:13:25.563Z,19.81
2022-09-07T05:15:53.231Z,19.92
2022-09-07T05:18:21.287Z,20.26
2022-09-07T05:20:48.675Z,20.53
2022-09-07T05:23:16.888Z,20.44
2022-09-07T05:25:44.923Z,20.49
2022-09-07T05:28:15.986Z,20.66
2022-09-07T05:36:22.715Z,20.50
2022-09-07T05:38:50.142Z,20.95
2022-09-07T05:41:19.552Z,20.58
2022-09-07T05:46:34.890Z,20.40
2022-09-07T05:49:03.613Z,20.81
2022-09-07T05:51:30.969Z,21.02
2022-09-07T05:53:58.660Z,20.88
2022-09-07T05:56:26.337Z,21.07
2022-09-07T05:58:53.845Z,21.42
2022-09-07T06:01:21.225Z,21.12
2022-09-07T06:03:48.924Z,21.36
2022-09-07T06:06:17.466Z,21.06
2022-09-07T06:08:49.312Z,20.85
2022-09-07T06:11:19.162Z,21.13
2022-09-07T06:13:46.689Z,21.69
2022-09-07T06:16:14.513Z,21.38
2022-09-07T06:18:43.676Z,21.58
2022-09-07T06:21:12.918Z,21.74
2022-09-07T06:23:41.021Z,22.23
2022-09-07T06:26:09.134Z,21.92
2022-09-07T06:28:41.430Z,21.69
2022-09-07T06:31:10.788Z,21.96
2022-09-07T06:33:38.353Z,21.88
2022-09-07T06:36:13.243Z,22.12
2022-09-07T06:38:41.043Z,22.25
2022-09-07T06:44:18.423Z,22.43
2022-09-07T06:49:33.595Z,22.10
2022-09-07T06:52:00.978Z,22.40
2022-09-07T06:57:16.081Z,22.02
2022-09-07T06:59:43.517Z,22.54
2022-09-07T07:02:11.492Z,22.36
2022-09-07T07:04:41.009Z,22.44
2022-09-07T07:07:12.441Z,22.38
2022-09-07T07:09:40.160Z,22.78
2022-09-07T07:12:07.625Z,22.99
2022-09-07T07:14:37.393Z,22.99
2022-09-07T07:17:07.490Z,22.55
2022-09-07T07:19:34.918Z,22.33
2022-09-07T07:22:14.446Z,22.70
2022-09-07T07:24:49.960Z,23.00
2022-09-07T07:27:17.621Z,22.78
2022-09-07T07:29:45.732Z,22.74
2022-09-07T07:32:13.427Z,22.94
2022-09-07T07:34:40.816Z,22.82
2022-09-07T07:37:08.282Z,23.17
2022-09-07T07:42:23.305Z,23.24
2022-09-07T07:47:38.445Z,22.91
2022-09-07T07:55:44.070Z,22.95
2022-09-07T07:58:13.008Z,23.37
2022-09-07T08:00:56.596Z,23.35
2022-09-07T08:03:24.957Z,23.87
2022-09-07T08:05:52.487Z,23.96
2022-09-07T08:08:20.064Z,23.83
2022-09-07T08:10:47.866Z,23.84
2022-09-07T08:13:16.118Z,24.10
2022-09-07T08:15:46.595Z,24.01
2022-09-07T08:18:15.778Z,23.69
2022-09-07T08:20:43.352Z,24.24
2022-09-07T08:23:11.796Z,24.29
2022-09-07T08:25:39.574Z,24.16
2022-09-07T08:28:06.972Z,24.12
2022-09-07T08:30:34.303Z,24.09
2022-09-07T08:33:01.958Z,24.21
2022-09-07T08:35:29.326Z,24.46
2022-09-07T08:37:56.935Z,24.03
2022-09-07T08:40:24.787Z,24.56
2022-09-07T08:43:01.237Z,24.20
2022-09-07T08:45:43.924Z,24.40
2022-09-07T08:48:14.867Z,24.77
2022-09-07T08:51:04.672Z,25.03
2022-09-07T08:53:32.181Z,25.50
2022-09-07T08:56:09.647Z,25.21
2022-09-07T08:58:50.570Z,25.35
2022-09-07T09:01:35.761Z,25.60
2022-09-07T09:04:21.095Z,24.74
2022-09-07T09:07:17.726Z,25.21
2022-09-07T09:10:01.561Z,25.28
2022-09-07T09:12:37.473Z,25.72
2022-09-07T09:15:10.282Z,25.84
2022-09-07T09:17:48.177Z,26.16
2022-09-07T09:20:53.557Z,26.07
2022-09-07T09:23:24.665Z,26.34
2022-09-07T09:25:56.557Z,26.64
2022-09-07T09:28:26.458Z,26.64
2022-09-07T09:30:56.359Z,26.48
2022-09-07T09:33:27.937Z,26.91
2022-09-07T09:35:56.970Z,26.79
2022-09-07T09:38:33.917Z,26.41
2022-09-07T09:41:12.098Z,26.67
2022-09-07T09:43:51.799Z,27.13
2022-09-07T09:46:33.506Z,26.93
2022-09-07T09:49:01.805Z,27.11
2022-09-07T09:54:19.245Z,27.49
2022-09-07T09:56:47.177Z,28.51
2022-09-07T10:05:40.981Z,32.94
2022-09-07T10:08:31.386Z,33.98
2022-09-07T10:11:00.715Z,35.08
2022-09-07T10:14:07.085Z,36.92
2022-09-07T10:16:44.288Z,36.86
2022-09-07T10:19:47.136Z,37.20
2022-09-07T10:22:35.134Z,39.71
2022-09-07T10:25:04.558Z,40.13
2022-09-07T10:27:35.633Z,38.58
2022-09-07T10:30:10.009Z,37.14
2022-09-07T10:32:46.632Z,36.09
2022-09-07T10:35:31.841Z,35.38
2022-09-07T10:38:11.690Z,34.32
2022-09-07T10:40:42.885Z,33.39
2022-09-07T10:43:23.790Z,31.72
2022-09-07T10:49:32.539Z,30.43
2022-09-07T10:52:05.001Z,30.97
2022-09-07T10:54:56.467Z,30.81
2022-09-07T10:57:33.277Z,30.74
2022-09-07T11:00:13.930Z,30.38
2022-09-07T11:03:26.923Z,30.39
2022-09-07T11:06:13.005Z,30.18
2022-09-07T11:12:03.643Z,29.43
2022-09-07T11:14:36.593Z,29.93
2022-09-07T11:17:08.632Z,30.00
2022-09-07T11:19:50.425Z,30.11
2022-09-07T11:22:34.398Z,30.11
2022-09-07T11:25:38.044Z,29.30
2022-09-07T11:28:17.926Z,29.07
2022-09-07T11:30:48.108Z,29.41
2022-09-07T11:33:32.094Z,29.61
2022-09-07T11:36:02.338Z,29.64
2022-09-07T11:38:57.386Z,28.88
2022-09-07T11:41:29.626Z,29.16
2022-09-07T11:44:21.806Z,29.52
2022-09-07T11:46:51.346Z,29.43
2022-09-07T11:49:25.977Z,29.45
2022-09-07T11:52:05.078Z,29.61
2022-09-07T11:54:35.824Z,29.65
2022-09-07T11:57:15.399Z,29.62
2022-09-07T12:00:12.085Z,29.74
2022-09-07T12:03:02.076Z,29.83
2022-09-07T12:05:51.328Z,29.86
2022-09-07T12:08:54.053Z,29.95
2022-09-07T12:11:40.259Z,29.77
2022-09-07T12:14:17.053Z,29.95
2022-09-07T12:17:01.974Z,29.61
2022-09-07T12:19:29.718Z,29.68
2022-09-07T12:21:57.954Z,29.67
2022-09-07T12:24:35.193Z,29.73
2022-09-07T12:27:21.970Z,29.78
2022-09-07T12:29:59.528Z,29.86
2022-09-07T12:32:57.981Z,30.01
2022-09-07T12:35:28.711Z,30.31
2022-09-07T12:38:03.033Z,30.01
2022-09-07T12:40:37.201Z,29.84
2022-09-07T12:43:14.070Z,29.66
2022-09-07T12:45:41.981Z,29.77
2022-09-07T12:48:15.586Z,29.42
2022-09-07T12:51:02.862Z,29.59
2022-09-07T12:53:30.958Z,29.58
2022-09-07T12:56:17.228Z,29.30
2022-09-07T12:58:45.072Z,29.06
2022-09-07T13:01:21.770Z,29.23
2022-09-07T13:04:12.886Z,29.20
2022-09-07T13:07:06.656Z,29.39
2022-09-07T13:09:40.192Z,29.16
2022-09-07T13:15:44.906Z,29.18
2022-09-07T13:18:35.222Z,29.12
2022-09-07T13:21:08.885Z,29.30
2022-09-07T13:23:37.829Z,29.22
2022-09-07T13:26:09.780Z,29.11
2022-09-07T13:28:56.225Z,29.00
2022-09-07T13:31:45.150Z,28.86
2022-09-07T13:34:34.124Z,28.92
2022-09-07T13:37:02.577Z,28.51
2022-09-07T13:39:30.111Z,28.66
2022-09-07T13:41:58.326Z,28.87
2022-09-07T13:44:30.073Z,28.48
2022-09-07T13:47:13.551Z,28.64
2022-09-07T13:49:47.258Z,28.23
2022-09-07T13:52:19.413Z,28.57
2022-09-07T13:55:17.755Z,28.56
2022-09-07T13:58:04.647Z,28.80
2022-09-07T14:00:32.928Z,28.46
2022-09-07T14:03:05.566Z,28.49
2022-09-07T14:05:33.232Z,28.60
2022-09-07T14:08:00.842Z,28.41
2022-09-07T14:10:29.235Z,28.69
2022-09-07T14:13:11.707Z,28.74
2022-09-07T14:15:41.654Z,28.75
2022-09-07T14:18:13.486Z,28.72
2022-09-07T14:20:51.771Z,28.69
2022-09-07T14:23:24.951Z,28.72
2022-09-07T14:26:18.791Z,28.46
2022-09-07T14:28:47.928Z,28.67
2022-09-07T14:31:17.144Z,28.55
2022-09-07T14:33:58.222Z,28.44
2022-09-07T14:36:48.478Z,28.32
2022-09-07T14:39:16.759Z,28.29
2022-09-07T14:41:44.594Z,28.09
2022-09-07T14:44:33.712Z,28.16
2022-09-07T14:47:11.661Z,28.27
2022-09-07T14:49:38.977Z,28.38
2022-09-07T14:52:06.582Z,28.28
2022-09-07T14:54:34.209Z,28.31
2022-09-07T14:57:06.422Z,28.49
2022-09-07T14:59:41.294Z,28.44
2022-09-07T15:02:24.086Z,28.42
2022-09-07T15:05:18.392Z,28.49
2022-09-07T15:07:47.680Z,28.68
2022-09-07T15:10:21.286Z,28.80
2022-09-07T15:12:49.275Z,28.77
2022-09-07T15:15:27.882Z,28.82
2022-09-07T15:17:58.977Z,29.00
2022-09-07T15:20:38.411Z,29.14
2022-09-07T15:23:16.656Z,29.26
2022-09-07T15:25:50.517Z,29.24
2022-09-07T15:34:10.283Z,28.97
2022-09-07T15:36:40.343Z,29.14
2022-09-07T15:39:08.778Z,28.88
2022-09-07T15:41:36.207Z,28.80
2022-09-07T15:44:03.906Z,28.92
2022-09-07T15:46:32.438Z,28.80
2022-09-07T15:49:01.687Z,28.80
2022-09-07T15:54:16.776Z,28.48
2022-09-07T15:57:48.083Z,28.53
2022-09-07T15:59:31.778Z,28.48
2022-09-07T16:01:59.578Z,28.42
2022-09-07T16:04:27.604Z,28.49
2022-09-07T16:06:55.041Z,28.43
2022-09-07T16:09:22.705Z,28.34
2022-09-07T16:11:52.083Z,28.32
2022-09-07T16:14:19.471Z,28.25
2022-09-07T16:19:36.135Z,28.17
2022-09-07T16:22:03.763Z,28.00
2022-09-07T16:24:31.156Z,27.98
2022-09-07T16:27:00.896Z,27.93
2022-09-07T16:29:29.368Z,27.91
2022-09-07T16:34:44.958Z,27.86
2022-09-07T16:37:12.425Z,27.72
2022-09-07T16:39:41.836Z,27.71
2022-09-07T16:42:09.788Z,27.64
2022-09-07T16:44:38.400Z,27.55
2022-09-07T16:47:07.997Z,27.39
2022-09-07T16:49:35.841Z,27.33
2022-09-07T16:52:05.241Z,27.20
2022-09-07T16:54:32.730Z,27.16
2022-09-07T16:57:00.357Z,27.07
2022-09-07T16:59:27.788Z,26.90
2022-09-07T17:01:55.393Z,26.77
2022-09-07T17:04:23.393Z,26.76
2022-09-07T17:06:52.521Z,26.58
2022-09-07T17:09:20.576Z,26.52
2022-09-07T17:11:48.394Z,26.37
2022-09-07T17:14:15.745Z,26.35
2022-09-07T17:16:43.208Z,26.17
2022-09-07T17:22:00.713Z,25.96
2022-09-07T17:24:28.471Z,25.88
2022-09-07T17:26:55.829Z,25.78
2022-09-07T17:29:23.189Z,25.71
2022-09-07T17:34:38.426Z,25.58
2022-09-07T17:37:06.172Z,25.55
2022-09-07T17:39:33.842Z,25.43
2022-09-07T17:42:01.335Z,25.36
2022-09-07T17:44:33.238Z,25.27
2022-09-07T17:47:03.298Z,25.24
2022-09-07T17:49:30.930Z,25.12
2022-09-07T17:51:59.925Z,25.06
2022-09-07T17:54:27.516Z,24.96
2022-09-07T17:56:55.106Z,24.98
2022-09-07T18:02:12.453Z,24.84
2022-09-07T18:04:40.168Z,24.85
2022-09-07T18:07:07.730Z,24.86
2022-09-07T18:09:35.360Z,24.83
2022-09-07T18:12:03.333Z,24.77
2022-09-07T18:14:31.027Z,24.82
2022-09-07T18:16:58.500Z,24.64
2022-09-07T18:19:26.541Z,24.69
2022-09-07T18:21:54.149Z,24.67
2022-09-07T18:24:23.521Z,24.69
2022-09-07T18:26:52.750Z,24.66
2022-09-07T18:29:32.518Z,24.59
2022-09-07T18:32:04.790Z,24.53
2022-09-07T18:34:35.021Z,24.53
2022-09-07T18:37:04.600Z,24.45
2022-09-07T18:39:33.713Z,24.56
2022-09-07T18:42:01.129Z,24.56
2022-09-07T18:47:23.232Z,24.10
2022-09-07T18:49:55.506Z,24.11
2022-09-07T18:55:13.642Z,24.20
2022-09-07T18:57:41.414Z,24.25
2022-09-07T19:00:10.667Z,24.36
2022-09-07T19:02:38.502Z,24.26
2022-09-07T19:08:03.592Z,24.23
2022-09-07T19:10:37.383Z,24.08
2022-09-07T19:13:05.107Z,24.04
2022-09-07T19:15:37.486Z,23.97
2022-09-07T19:18:06.717Z,23.97
2022-09-07T19:20:34.837Z,24.01
2022-09-07T19:23:03.515Z,23.91
2022-09-07T19:25:31.186Z,23.81
2022-09-07T19:27:59.423Z,23.69
2022-09-07T19:30:28.007Z,23.60
2022-09-07T19:32:55.634Z,23.59
2022-09-07T19:35:23.093Z,23.60
2022-09-07T19:37:50.518Z,23.69
2022-09-07T19:40:19.426Z,23.59
2022-09-07T19:42:46.957Z,23.65
2022-09-07T19:45:15.790Z,23.55
2022-09-07T19:47:43.838Z,23.71
2022-09-07T19:50:11.170Z,23.72
2022-09-07T19:52:38.493Z,23.74
2022-09-07T19:55:06.748Z,23.87
2022-09-07T19:57:34.210Z,23.86
2022-09-07T20:00:02.976Z,23.94
2022-09-07T20:02:39.594Z,23.96
2022-09-07T20:05:07.821Z,24.01
2022-09-07T20:07:36.218Z,24.02
2022-09-07T20:10:03.576Z,23.96
2022-09-07T20:12:31.161Z,23.92
2022-09-07T20:14:58.514Z,23.89
2022-09-07T20:17:25.869Z,23.69
2022-09-07T20:19:53.440Z,23.82
2022-09-07T20:22:20.761Z,23.77
2022-09-07T20:24:48.087Z,23.74
2022-09-07T20:27:15.745Z,23.73
2022-09-07T20:29:43.073Z,23.68
2022-09-07T20:32:10.670Z,23.60
2022-09-07T20:34:38.369Z,23.54
2022-09-07T20:37:05.711Z,23.31
2022-09-07T20:39:38.399Z,23.46
2022-09-07T20:42:07.743Z,23.15
2022-09-07T20:44:35.089Z,23.17
2022-09-07T20:47:02.785Z,23.23
2022-09-07T20:49:30.413Z,23.52
2022-09-07T20:51:57.754Z,23.35
2022-09-07T20:54:25.116Z,23.28
2022-09-07T20:56:52.720Z,23.32
2022-09-07T20:59:20.127Z,23.31
2022-09-07T21:01:47.545Z,23.40
2022-09-07T21:04:15.166Z,23.42
2022-09-07T21:06:42.486Z,23.25
2022-09-07T21:09:10.598Z,23.22
2022-09-07T21:11:38.624Z,22.99
2022-09-07T21:14:07.752Z,23.09
2022-09-07T21:16:35.612Z,22.95
2022-09-07T21:19:04.897Z,22.98
2022-09-07T21:21:38.355Z,22.95
2022-09-07T21:24:07.488Z,22.73
2022-09-07T21:26:34.993Z,22.60
2022-09-07T21:29:03.788Z,22.77
2022-09-07T21:31:31.918Z,22.91
2022-09-07T21:34:00.476Z,22.78
2022-09-07T21:36:27.947Z,22.78
2022-09-07T21:38:55.882Z,22.59
2022-09-07T21:41:23.805Z,22.37
2022-09-07T21:43:58.082Z,22.49
2022-09-07T21:46:26.046Z,22.94
2022-09-07T21:48:54.805Z,22.57
2022-09-07T21:51:22.341Z,22.36
2022-09-07T21:53:57.172Z,22.39
2022-09-07T21:56:24.762Z,22.74
2022-09-07T21:58:59.142Z,22.57
2022-09-07T22:01:27.052Z,22.52
2022-09-07T22:03:59.386Z,22.56
2022-09-07T22:06:27.848Z,22.61
2022-09-07T22:08:55.836Z,22.54
2022-09-07T22:11:23.712Z,22.49
2022-09-07T22:13:54.505Z,22.44
2022-09-07T22:16:22.212Z,22.31
2022-09-07T22:18:49.706Z,22.18
2022-09-07T22:21:19.211Z,22.04
2022-09-07T22:23:48.670Z,22.17
2022-09-07T22:26:20.060Z,22.13
2022-09-07T22:28:47.745Z,22.03
2022-09-07T22:31:17.058Z,21.86
2022-09-07T22:33:44.859Z,21.76
2022-09-07T22:36:22.355Z,22.02
2022-09-07T22:38:51.852Z,22.14
2022-09-07T22:41:20.962Z,22.13
2022-09-07T22:43:50.688Z,21.91
2022-09-07T22:46:19.270Z,21.98
2022-09-07T22:48:46.943Z,21.88
2022-09-07T22:51:14.303Z,21.93
2022-09-07T22:53:42.353Z,21.95
2022-09-07T22:56:14.546Z,21.91
2022-09-07T22:58:45.814Z,21.97
2022-09-07T23:01:13.426Z,22.01
2022-09-07T23:03:40.827Z,22.18
2022-09-07T23:06:08.700Z,22.21
2022-09-07T23:08:36.466Z,22.08
2022-09-07T23:11:05.085Z,21.89
2022-09-07T23:13:33.202Z,21.84
2022-09-07T23:16:06.045Z,22.18
2022-09-07T23:18:33.937Z,21.98
2022-09-07T23:21:01.805Z,21.96
2022-09-07T23:23:29.478Z,22.05
2022-09-07T23:25:56.872Z,22.13
2022-09-07T23:28:24.486Z,22.05
2022-09-07T23:30:51.840Z,22.00
2022-09-07T23:33:19.191Z,22.13
2022-09-07T23:35:56.630Z,22.17
2022-09-07T23:38:25.042Z,21.63
2022-09-07T23:40:53.657Z,21.78
2022-09-07T23:43:21.864Z,21.89
2022-09-07T23:45:49.344Z,21.65
2022-09-07T23:48:16.925Z,21.59
2022-09-07T23:50:44.920Z,21.68
2022-09-07T23:53:12.376Z,21.75
2022-09-07T23:55:40.013Z,21.69
2022-09-07T23:58:07.899Z,21.65
